Time;durP1;ratioP1;P1;durP2;ratioP2;P2;SDS_P1;SDS_P2;PMS_P1;PMS_P2;Temp;Humidity;BMP_temperature;BMP_pressure;BME280_temperature;BME280_humidity;BME280_pressure;Samples;Min_cycle;Max_cycle;Signal;HPM_P1;HPM_P2
2022/09/06 00:00:44;;;;;;;17.83;16.13;;;17.10;99.90;;;;;;2120791;27;20119;-73
2022/09/06 00:01:45;;;;;;;16.42;14.85;;;17.10;99.90;;;;;;2121360;27;20142;-72
2022/09/06 00:02:46;;;;;;;17.13;15.25;;;17.10;99.90;;;;;;2121022;27;20552;-71
2022/09/06 00:03:46;;;;;;;16.60;15.00;;;17.10;99.90;;;;;;2121651;27;20091;-71
2022/09/06 00:04:48;;;;;;;16.38;14.77;;;17.10;99.90;;;;;;2121816;27;20027;-71
2022/09/06 00:05:49;;;;;;;17.38;15.30;;;17.10;99.90;;;;;;2121772;27;20703;-72
2022/09/06 00:06:50;;;;;;;17.27;15.55;;;17.10;99.90;;;;;;2121098;27;20047;-71
2022/09/06 00:07:51;;;;;;;16.83;15.13;;;17.00;99.90;;;;;;2121306;27;20027;-72
2022/09/06 00:08:51;;;;;;;16.83;15.13;;;17.00;99.90;;;;;;2121810;27;20528;-72
2022/09/06 00:09:52;;;;;;;16.52;14.85;;;17.00;99.90;;;;;;2121578;27;20027;-72
2022/09/06 00:10:56;;;;;;;17.52;15.82;;;17.00;99.90;;;;;;2121697;27;20030;-71
2022/09/06 00:11:57;;;;;;;17.17;15.48;;;16.90;99.90;;;;;;2120889;27;20406;-72
2022/09/06 00:13:03;;;;;;;18.20;16.40;;;16.90;99.90;;;;;;2121259;27;20028;-71
2022/09/06 00:14:04;;;;;;;17.33;15.25;;;16.90;99.90;;;;;;2121714;27;20026;-72
2022/09/06 00:15:05;;;;;;;17.80;15.95;;;16.90;99.90;;;;;;2121953;27;20065;-72
2022/09/06 00:16:08;;;;;;;17.15;15.45;;;16.90;99.90;;;;;;2122112;27;20027;-72
2022/09/06 00:17:09;;;;;;;17.23;15.45;;;16.90;99.90;;;;;;2121871;27;20498;-71
2022/09/06 00:18:09;;;;;;;16.80;15.20;;;16.90;99.90;;;;;;2121898;27;20020;-70
2022/09/06 00:19:10;;;;;;;17.20;15.52;;;16.90;99.90;;;;;;2121921;27;20029;-71
2022/09/06 00:20:11;;;;;;;17.83;16.00;;;16.90;99.90;;;;;;2121014;27;20658;-71
2022/09/06 00:21:26;;;;;;;17.08;15.38;;;16.80;99.90;;;;;;2121919;27;20657;-71
2022/09/06 00:22:27;;;;;;;17.45;15.75;;;16.80;99.90;;;;;;2121866;27;20080;-71
2022/09/06 00:23:28;;;;;;;17.85;16.08;;;16.80;99.90;;;;;;2122085;27;20131;-71
2022/09/06 00:24:28;;;;;;;17.20;15.40;;;16.80;99.90;;;;;;2121823;27;20528;-72
2022/09/06 00:25:30;;;;;;;16.77;15.15;;;16.80;99.90;;;;;;2121848;28;20084;-72
2022/09/06 00:26:30;;;;;;;16.40;14.80;;;16.80;99.90;;;;;;2121994;27;20062;-72
2022/09/06 00:27:31;;;;;;;16.60;15.00;;;16.80;99.90;;;;;;2121848;28;20042;-72
2022/09/06 00:28:32;;;;;;;16.13;14.52;;;16.80;99.90;;;;;;2121945;27;20038;-72
2022/09/06 00:29:33;;;;;;;16.30;14.70;;;16.80;99.90;;;;;;2122177;28;20053;-72
2022/09/06 00:30:34;;;;;;;16.38;14.70;;;16.80;99.90;;;;;;2121830;27;20055;-72
2022/09/06 00:31:35;;;;;;;16.63;15.00;;;16.80;99.90;;;;;;2121295;27;20027;-72
2022/09/06 00:32:35;;;;;;;17.63;15.82;;;16.80;99.90;;;;;;2121247;27;20031;-72
2022/09/06 00:33:36;;;;;;;16.30;14.73;;;16.80;99.90;;;;;;2121095;27;20031;-72
2022/09/06 00:34:37;;;;;;;16.83;15.18;;;16.80;99.90;;;;;;2121298;28;20114;-71
2022/09/06 00:35:37;;;;;;;16.48;14.88;;;16.80;99.90;;;;;;2121427;27;20069;-72
2022/09/06 00:36:38;;;;;;;16.45;14.85;;;16.70;99.90;;;;;;2121071;28;20062;-72
2022/09/06 00:37:38;;;;;;;16.88;14.68;;;16.70;99.90;;;;;;2121772;27;20019;-72
2022/09/06 00:38:40;;;;;;;17.05;15.35;;;16.70;99.90;;;;;;2121860;27;20437;-72
2022/09/06 00:39:40;;;;;;;16.23;14.63;;;16.70;99.90;;;;;;2121969;27;20034;-72
2022/09/06 00:40:41;;;;;;;17.10;15.35;;;16.70;99.90;;;;;;2121197;28;20054;-72
2022/09/06 00:41:42;;;;;;;16.40;14.80;;;16.70;99.90;;;;;;2121567;27;20141;-73
2022/09/06 00:42:42;;;;;;;17.83;15.93;;;16.70;99.90;;;;;;2121958;27;20493;-74
2022/09/06 00:43:43;;;;;;;17.00;15.25;;;16.70;99.90;;;;;;2121915;27;20023;-73
2022/09/06 00:44:44;;;;;;;17.33;15.60;;;16.60;99.90;;;;;;2122101;28;20835;-74
2022/09/06 00:45:44;;;;;;;16.63;14.93;;;16.60;99.90;;;;;;2122016;28;20031;-72
2022/09/06 00:46:48;;;;;;;16.80;15.10;;;16.60;99.90;;;;;;2122062;28;20389;-74
2022/09/06 00:47:48;;;;;;;16.65;15.02;;;16.60;99.90;;;;;;2122156;27;20019;-73
2022/09/06 00:48:54;;;;;;;16.73;15.02;;;16.60;99.90;;;;;;2121919;27;20038;-74
2022/09/06 00:49:58;;;;;;;16.33;14.63;;;16.60;99.90;;;;;;2121885;27;20401;-72
2022/09/06 00:51:02;;;;;;;16.95;15.27;;;16.60;99.90;;;;;;2121789;27;20027;-72
2022/09/06 00:52:08;;;;;;;17.38;15.68;;;16.60;99.90;;;;;;2121880;27;20081;-73
2022/09/06 00:53:09;;;;;;;16.85;15.15;;;16.50;99.90;;;;;;2122041;27;20534;-72
2022/09/06 00:54:10;;;;;;;16.30;14.70;;;16.60;99.90;;;;;;2112578;28;20097;-74
2022/09/06 00:55:11;;;;;;;16.83;15.13;;;16.50;99.90;;;;;;2111963;28;20504;-73
2022/09/06 00:56:12;;;;;;;16.35;14.65;;;16.50;99.90;;;;;;2122061;27;20110;-72
2022/09/06 00:57:15;;;;;;;16.95;15.25;;;16.50;99.90;;;;;;2121535;27;20497;-72
2022/09/06 00:58:16;;;;;;;16.40;14.82;;;16.50;99.90;;;;;;2121005;28;20073;-72
2022/09/06 00:59:17;;;;;;;17.33;15.27;;;16.50;99.90;;;;;;2121265;27;20031;-72
2022/09/06 01:00:19;;;;;;;17.05;15.38;;;16.50;99.90;;;;;;2121744;27;20068;-73
2022/09/06 01:01:19;;;;;;;16.88;15.18;;;16.50;99.90;;;;;;2121894;27;20038;-73
2022/09/06 01:02:20;;;;;;;16.95;15.25;;;16.50;99.90;;;;;;2121994;28;20026;-72
2022/09/06 01:03:23;;;;;;;16.90;15.20;;;16.50;99.90;;;;;;2121480;27;20050;-72
2022/09/06 01:04:25;;;;;;;16.95;15.15;;;16.50;99.90;;;;;;2121755;27;20089;-73
2022/09/06 01:05:55;;;;;;;16.33;14.63;;;16.50;99.90;;;;;;2121766;27;20174;-72
2022/09/06 01:06:58;;;;;;;16.17;14.48;;;16.50;99.90;;;;;;2078532;28;20533;-73
2022/09/06 01:08:02;;;;;;;17.05;15.25;;;16.50;99.90;;;;;;2110222;28;20035;-72
2022/09/06 01:09:25;;;;;;;16.40;14.70;;;16.50;99.90;;;;;;2112935;28;20085;-73
2022/09/06 01:10:58;;;;;;;16.60;14.90;;;16.50;99.90;;;;;;2112861;28;20042;-73
2022/09/06 01:12:34;;;;;;;16.85;15.15;;;16.50;99.90;;;;;;2113223;28;20146;-72
2022/09/06 01:13:49;;;;;;;16.35;14.75;;;16.50;99.90;;;;;;2078552;28;20072;-73
2022/09/06 01:15:05;;;;;;;16.75;14.90;;;16.50;99.90;;;;;;2086840;28;20033;-73
2022/09/06 01:16:30;;;;;;;16.20;14.60;;;16.40;99.90;;;;;;2112999;28;20042;-72
2022/09/06 01:17:51;;;;;;;17.02;15.13;;;16.40;99.90;;;;;;2082567;28;20040;-73
2022/09/06 01:19:01;;;;;;;17.17;15.38;;;16.40;99.90;;;;;;2114052;28;20046;-74
2022/09/06 01:20:35;;;;;;;17.75;15.95;;;16.40;99.90;;;;;;2113637;28;20031;-72
2022/09/06 01:21:51;;;;;;;18.60;16.55;;;16.40;99.90;;;;;;2114384;28;20370;-72
2022/09/06 01:23:30;;;;;;;17.83;15.93;;;16.40;99.90;;;;;;2114030;28;20020;-72
2022/09/06 01:24:58;;;;;;;17.75;15.85;;;16.40;99.90;;;;;;2113827;28;20035;-73
2022/09/06 01:26:36;;;;;;;18.10;16.23;;;16.40;99.90;;;;;;2104384;28;20098;-73
2022/09/06 01:28:13;;;;;;;18.70;16.40;;;16.40;99.90;;;;;;2109610;28;20678;-72
2022/09/06 01:29:41;;;;;;;17.48;15.60;;;16.30;99.90;;;;;;2098939;28;20122;-72
2022/09/06 01:30:49;;;;;;;17.45;15.65;;;16.30;99.90;;;;;;2112555;28;20051;-72
2022/09/06 01:32:30;;;;;;;17.05;15.35;;;16.30;99.90;;;;;;2114070;28;20039;-72
2022/09/06 01:33:42;;;;;;;17.52;15.65;;;16.30;99.90;;;;;;2080055;28;20038;-71
2022/09/06 01:34:50;;;;;;;17.38;15.57;;;16.30;99.90;;;;;;2081936;28;20068;-71
2022/09/06 01:35:56;;;;;;;16.98;15.10;;;16.30;99.90;;;;;;2113721;28;20077;-71
2022/09/06 01:37:11;;;;;;;17.80;16.02;;;16.30;99.90;;;;;;2106113;28;20024;-71
2022/09/06 01:38:13;;;;;;;17.50;15.70;;;16.30;99.90;;;;;;2113995;28;20031;-72
2022/09/06 01:39:25;;;;;;;17.92;16.15;;;16.30;99.90;;;;;;2114474;27;20024;-71
2022/09/06 01:40:27;;;;;;;18.33;16.05;;;16.30;99.90;;;;;;2114217;28;20096;-71
2022/09/06 01:41:28;;;;;;;17.77;16.00;;;16.30;99.90;;;;;;2114330;28;20023;-71
2022/09/06 01:42:31;;;;;;;17.90;16.00;;;16.30;99.90;;;;;;2113868;28;20030;-71
2022/09/06 01:43:36;;;;;;;18.38;16.33;;;16.20;99.90;;;;;;2113565;28;20482;-73
2022/09/06 01:44:41;;;;;;;18.30;16.13;;;16.30;99.90;;;;;;2114246;28;20049;-71
2022/09/06 01:45:48;;;;;;;19.27;17.25;;;16.30;99.90;;;;;;2114578;28;20036;-72
2022/09/06 01:47:18;;;;;;;18.13;16.33;;;16.20;99.90;;;;;;2114271;28;20370;-72
2022/09/06 01:48:27;;;;;;;18.30;16.42;;;16.20;99.90;;;;;;2104557;27;20035;-73
2022/09/06 01:49:37;;;;;;;18.27;16.48;;;16.20;99.90;;;;;;2121362;27;20023;-72
2022/09/06 01:51:02;;;;;;;18.90;16.95;;;16.20;99.90;;;;;;2113834;27;20118;-73
2022/09/06 01:52:33;;;;;;;17.85;16.05;;;16.20;99.90;;;;;;2120891;27;20034;-73
2022/09/06 01:53:54;;;;;;;18.45;16.40;;;16.20;99.90;;;;;;2122866;27;20566;-72
2022/09/06 01:55:37;;;;;;;18.05;16.25;;;16.20;99.90;;;;;;2122099;27;20035;-72
2022/09/06 01:57:12;;;;;;;19.02;15.90;;;16.20;99.90;;;;;;2093654;28;20082;-72
2022/09/06 01:58:31;;;;;;;18.38;16.55;;;16.10;99.90;;;;;;2107593;27;20088;-72
2022/09/06 01:59:54;;;;;;;18.30;16.40;;;16.20;99.90;;;;;;2122835;27;20510;-73
2022/09/06 02:01:04;;;;;;;17.05;15.27;;;16.10;99.90;;;;;;2122112;27;20053;-72
2022/09/06 02:02:15;;;;;;;18.35;16.30;;;16.10;99.90;;;;;;2122426;27;20035;-72
2022/09/06 02:03:43;;;;;;;17.95;16.15;;;16.10;99.90;;;;;;2122611;27;20038;-73
2022/09/06 02:05:00;;;;;;;17.52;15.80;;;16.20;99.90;;;;;;2123086;27;20154;-71
2022/09/06 02:06:10;;;;;;;17.58;15.77;;;16.20;99.90;;;;;;2122809;27;20027;-72
2022/09/06 02:07:20;;;;;;;17.23;15.48;;;16.20;99.90;;;;;;2122333;27;20035;-72
2022/09/06 02:08:28;;;;;;;18.90;17.00;;;16.10;99.90;;;;;;2122109;27;20027;-73
2022/09/06 02:09:34;;;;;;;18.95;16.92;;;16.20;99.90;;;;;;2122200;27;20770;-71
2022/09/06 02:11:03;;;;;;;19.23;17.33;;;16.20;99.90;;;;;;2114279;27;20151;-73
2022/09/06 02:12:06;;;;;;;18.85;16.95;;;16.20;99.90;;;;;;2122585;27;20092;-73
2022/09/06 02:13:09;;;;;;;19.17;17.17;;;16.20;99.90;;;;;;2122702;27;20027;-73
2022/09/06 02:14:26;;;;;;;19.08;17.08;;;16.20;99.90;;;;;;2113799;28;20105;-71
2022/09/06 02:15:38;;;;;;;19.33;16.95;;;16.20;99.90;;;;;;2116237;27;20027;-71
2022/09/06 02:16:42;;;;;;;19.15;17.15;;;16.20;99.90;;;;;;2123061;27;20495;-71
2022/09/06 02:18:10;;;;;;;18.88;16.98;;;16.20;99.90;;;;;;2123276;27;20043;-72
2022/09/06 02:19:23;;;;;;;18.95;17.05;;;16.20;99.90;;;;;;2112271;27;20039;-73
2022/09/06 02:20:32;;;;;;;19.45;17.50;;;16.10;99.90;;;;;;2123141;27;20084;-73
2022/09/06 02:21:37;;;;;;;19.02;17.05;;;16.10;99.90;;;;;;2123385;27;20019;-72
2022/09/06 02:22:43;;;;;;;18.17;16.38;;;16.10;99.90;;;;;;2123192;27;20444;-72
2022/09/06 02:23:46;;;;;;;18.52;16.65;;;16.10;99.90;;;;;;2122725;27;20027;-72
2022/09/06 02:24:50;;;;;;;18.67;16.80;;;16.10;99.90;;;;;;2122509;27;20114;-72
2022/09/06 02:26:05;;;;;;;18.60;16.70;;;16.10;99.90;;;;;;2122846;27;20035;-72
2022/09/06 02:27:07;;;;;;;19.45;17.50;;;16.10;99.90;;;;;;2122761;27;20061;-72
2022/09/06 02:28:08;;;;;;;19.05;17.15;;;16.10;99.90;;;;;;2122651;27;20035;-71
2022/09/06 02:29:09;;;;;;;18.40;16.50;;;16.10;99.90;;;;;;2122415;27;20085;-71
2022/09/06 02:30:10;;;;;;;19.77;17.77;;;16.10;99.90;;;;;;2113443;28;20150;-71
2022/09/06 02:31:18;;;;;;;19.20;17.27;;;16.10;99.90;;;;;;2122425;27;20427;-72
2022/09/06 02:32:22;;;;;;;18.73;16.92;;;16.10;99.90;;;;;;2123317;27;20019;-72
2022/09/06 02:33:27;;;;;;;18.88;16.88;;;16.10;99.90;;;;;;2122902;27;20034;-72
2022/09/06 02:34:28;;;;;;;19.27;17.27;;;16.10;99.90;;;;;;2123208;27;20019;-72
2022/09/06 02:35:29;;;;;;;18.67;16.77;;;16.10;99.90;;;;;;2123401;27;20038;-72
2022/09/06 02:36:31;;;;;;;18.13;16.30;;;16.10;99.90;;;;;;2123093;27;20055;-72
2022/09/06 02:37:31;;;;;;;18.70;16.70;;;16.10;99.90;;;;;;2123390;27;20023;-72
2022/09/06 02:38:35;;;;;;;19.17;17.25;;;16.10;99.90;;;;;;2122888;27;20015;-73
2022/09/06 02:39:37;;;;;;;19.05;17.15;;;16.10;99.90;;;;;;2123014;27;20119;-72
2022/09/06 02:40:38;;;;;;;18.98;17.08;;;16.10;99.90;;;;;;2121707;27;20073;-73
2022/09/06 02:41:41;;;;;;;20.27;18.17;;;16.10;99.90;;;;;;2113253;28;20513;-72
2022/09/06 02:42:41;;;;;;;25.55;18.27;;;16.10;99.90;;;;;;2122026;27;20116;-72
2022/09/06 02:43:42;;;;;;;20.42;18.17;;;16.10;99.90;;;;;;2121796;27;20023;-73
2022/09/06 02:44:43;;;;;;;19.77;17.67;;;16.00;99.90;;;;;;2122503;27;20092;-72
2022/09/06 02:45:44;;;;;;;19.63;17.52;;;16.00;99.90;;;;;;2122561;27;20106;-73
2022/09/06 02:46:44;;;;;;;19.75;17.80;;;16.00;99.90;;;;;;2122068;27;20473;-73
2022/09/06 02:47:45;;;;;;;19.40;17.42;;;16.00;99.90;;;;;;2117852;27;20037;-73
2022/09/06 02:48:46;;;;;;;19.13;17.17;;;16.00;99.90;;;;;;2122561;27;20126;-73
2022/09/06 02:49:46;;;;;;;18.85;16.85;;;15.90;99.90;;;;;;2122319;27;20438;-73
2022/09/06 02:50:47;;;;;;;18.88;17.08;;;16.00;99.90;;;;;;2122216;27;20034;-72
2022/09/06 02:51:47;;;;;;;18.80;16.80;;;16.00;99.90;;;;;;2122006;27;20083;-72
2022/09/06 02:53:08;;;;;;;18.80;16.98;;;15.90;99.90;;;;;;2113269;28;20118;-73
2022/09/06 02:54:09;;;;;;;18.25;16.38;;;15.90;99.90;;;;;;2122116;27;20027;-72
2022/09/06 02:55:10;;;;;;;18.67;16.70;;;15.90;99.90;;;;;;2122398;27;20378;-72
2022/09/06 02:56:11;;;;;;;19.50;17.35;;;15.90;99.90;;;;;;2122499;27;20023;-72
2022/09/06 02:57:11;;;;;;;18.65;16.75;;;15.80;99.90;;;;;;2122478;27;20541;-72
2022/09/06 02:58:13;;;;;;;19.85;17.85;;;15.80;99.90;;;;;;2121894;27;20656;-72
2022/09/06 02:59:13;;;;;;;20.27;18.10;;;15.90;99.90;;;;;;2122385;27;20043;-73
2022/09/06 03:00:14;;;;;;;20.10;18.02;;;15.80;99.90;;;;;;2122267;27;20665;-73
2022/09/06 03:01:14;;;;;;;19.27;17.38;;;15.80;99.90;;;;;;2122455;27;20034;-73
2022/09/06 03:02:15;;;;;;;19.48;17.58;;;15.80;99.90;;;;;;2122370;27;20023;-72
2022/09/06 03:03:16;;;;;;;18.48;16.67;;;15.80;99.90;;;;;;2122261;27;20054;-70
2022/09/06 03:04:17;;;;;;;17.50;15.77;;;15.80;99.90;;;;;;2122823;27;20668;-71
2022/09/06 03:05:17;;;;;;;18.15;16.35;;;15.80;99.90;;;;;;2121557;27;20055;-72
2022/09/06 03:06:18;;;;;;;17.83;16.02;;;15.80;99.90;;;;;;2121553;27;20022;-71
2022/09/06 03:07:18;;;;;;;17.25;15.55;;;15.80;99.90;;;;;;2122248;27;20023;-72
2022/09/06 03:08:21;;;;;;;18.00;16.17;;;15.80;99.90;;;;;;2122089;27;20485;-72
2022/09/06 03:09:21;;;;;;;17.70;15.90;;;15.80;99.90;;;;;;2122317;27;20404;-72
2022/09/06 03:10:23;;;;;;;17.77;16.00;;;15.80;99.90;;;;;;2121202;27;20496;-71
2022/09/06 03:11:26;;;;;;;17.40;15.70;;;15.80;99.90;;;;;;2113431;28;20029;-71
2022/09/06 03:12:26;;;;;;;17.58;15.68;;;15.80;99.90;;;;;;2121674;27;20015;-72
2022/09/06 03:13:27;;;;;;;17.60;15.90;;;15.80;99.90;;;;;;2122219;27;20052;-72
2022/09/06 03:14:28;;;;;;;17.50;15.68;;;15.80;99.90;;;;;;2122171;27;20096;-73
2022/09/06 03:15:28;;;;;;;17.55;15.70;;;15.80;99.90;;;;;;2122451;27;20384;-73
2022/09/06 03:16:29;;;;;;;16.65;15.05;;;15.80;99.90;;;;;;2112897;28;20680;-73
2022/09/06 03:17:30;;;;;;;17.45;15.65;;;15.80;99.90;;;;;;2113009;28;20062;-72
2022/09/06 03:18:31;;;;;;;16.83;15.23;;;15.80;99.90;;;;;;2121222;27;20111;-73
2022/09/06 03:19:35;;;;;;;17.08;15.38;;;15.80;99.90;;;;;;2113601;28;20024;-72
2022/09/06 03:20:35;;;;;;;17.77;15.98;;;15.70;99.90;;;;;;2121125;27;20562;-73
2022/09/06 03:21:36;;;;;;;17.55;15.75;;;15.70;99.90;;;;;;2122034;27;20042;-73
2022/09/06 03:22:40;;;;;;;17.48;15.73;;;15.70;99.90;;;;;;2122194;27;20035;-73
2022/09/06 03:23:41;;;;;;;17.02;15.30;;;15.70;99.90;;;;;;2121183;27;20039;-73
2022/09/06 03:24:41;;;;;;;18.13;16.33;;;15.80;99.90;;;;;;2112775;28;20035;-73
2022/09/06 03:25:43;;;;;;;18.30;16.35;;;15.80;99.90;;;;;;2121629;27;20027;-73
2022/09/06 03:26:44;;;;;;;17.58;15.77;;;15.70;99.90;;;;;;2122177;27;20039;-73
2022/09/06 03:27:45;;;;;;;17.88;16.05;;;15.70;99.90;;;;;;2122154;27;20016;-72
2022/09/06 03:28:45;;;;;;;17.92;16.13;;;15.70;99.90;;;;;;2122113;27;20035;-72
2022/09/06 03:29:46;;;;;;;17.98;15.93;;;15.70;99.90;;;;;;2121520;27;20037;-72
2022/09/06 03:30:48;;;;;;;17.45;15.65;;;15.70;99.90;;;;;;2121075;27;20034;-72
2022/09/06 03:31:49;;;;;;;17.35;15.65;;;15.70;99.90;;;;;;2121446;27;20027;-73
2022/09/06 03:32:49;;;;;;;18.38;16.48;;;15.70;99.90;;;;;;2121454;27;20020;-72
2022/09/06 03:33:50;;;;;;;18.38;16.42;;;15.70;99.90;;;;;;2122078;27;20480;-72
2022/09/06 03:34:51;;;;;;;18.60;16.70;;;15.60;99.90;;;;;;2122102;27;20053;-72
2022/09/06 03:35:57;;;;;;;19.30;16.98;;;15.60;99.90;;;;;;2122181;27;20027;-72
2022/09/06 03:36:58;;;;;;;19.17;17.20;;;15.70;99.90;;;;;;2122012;27;20023;-72
2022/09/06 03:37:58;;;;;;;18.33;16.42;;;15.70;99.90;;;;;;2121936;27;20027;-73
2022/09/06 03:38:59;;;;;;;19.13;17.05;;;15.70;99.90;;;;;;2121860;27;20093;-72
2022/09/06 03:39:59;;;;;;;19.73;17.63;;;15.70;99.90;;;;;;2121612;27;20027;-73
2022/09/06 03:41:00;;;;;;;19.80;17.35;;;15.60;99.90;;;;;;2121990;27;20031;-73
2022/09/06 03:42:01;;;;;;;18.45;16.38;;;15.60;99.90;;;;;;2122197;27;20106;-73
2022/09/06 03:43:02;;;;;;;18.77;16.88;;;15.60;99.90;;;;;;2121501;27;20708;-73
2022/09/06 03:44:03;;;;;;;18.08;16.17;;;15.60;99.90;;;;;;2119653;27;20088;-73
2022/09/06 03:45:04;;;;;;;18.42;16.60;;;15.60;99.90;;;;;;2121163;27;20092;-73
2022/09/06 03:46:05;;;;;;;18.15;16.35;;;15.60;99.90;;;;;;2121970;27;20035;-72
2022/09/06 03:47:06;;;;;;;17.38;15.68;;;15.60;99.90;;;;;;2122073;27;20051;-73
2022/09/06 03:48:06;;;;;;;18.30;16.50;;;15.60;99.90;;;;;;2122176;27;20023;-73
2022/09/06 03:49:09;;;;;;;16.92;15.32;;;15.60;99.90;;;;;;2122266;27;20688;-73
2022/09/06 03:50:09;;;;;;;17.48;15.63;;;15.50;99.90;;;;;;2122325;27;20035;-73
2022/09/06 03:51:10;;;;;;;17.23;15.52;;;15.60;99.90;;;;;;2121912;27;20027;-73
2022/09/06 03:52:10;;;;;;;18.17;16.17;;;15.60;99.90;;;;;;2122063;27;20623;-73
2022/09/06 03:53:12;;;;;;;17.33;15.60;;;15.50;99.90;;;;;;2123091;27;20043;-72
2022/09/06 03:54:12;;;;;;;18.02;16.23;;;15.50;99.90;;;;;;2122644;27;20096;-74
2022/09/06 03:55:13;;;;;;;17.50;15.80;;;15.50;99.90;;;;;;2121506;27;20124;-73
2022/09/06 03:56:14;;;;;;;17.88;16.02;;;15.50;99.90;;;;;;2121778;27;20034;-71
2022/09/06 03:57:14;;;;;;;16.90;14.68;;;15.50;99.90;;;;;;2121226;27;20396;-72
2022/09/06 03:58:17;;;;;;;17.08;15.32;;;15.50;99.90;;;;;;2121707;27;20114;-72
2022/09/06 03:59:17;;;;;;;16.67;14.95;;;15.50;99.90;;;;;;2121965;27;20068;-72
2022/09/06 04:00:18;;;;;;;16.58;14.98;;;15.50;99.90;;;;;;2121565;27;20106;-72
2022/09/06 04:01:19;;;;;;;16.42;14.82;;;15.50;99.90;;;;;;2121947;27;20034;-71
2022/09/06 04:02:20;;;;;;;16.55;14.82;;;15.50;99.90;;;;;;2122011;27;20034;-71
2022/09/06 04:03:20;;;;;;;16.80;15.00;;;15.50;99.90;;;;;;2121568;27;20062;-72
2022/09/06 04:04:21;;;;;;;16.77;15.07;;;15.50;99.90;;;;;;2122079;27;20061;-71
2022/09/06 04:05:22;;;;;;;16.92;15.23;;;15.50;99.90;;;;;;2121759;27;20038;-71
2022/09/06 04:06:22;;;;;;;17.05;15.13;;;15.50;99.90;;;;;;2121625;27;20034;-71
2022/09/06 04:07:23;;;;;;;17.35;15.45;;;15.50;99.90;;;;;;2121654;27;20120;-71
2022/09/06 04:08:24;;;;;;;17.63;15.82;;;15.50;99.90;;;;;;2121462;27;20545;-71
2022/09/06 04:09:24;;;;;;;17.38;15.52;;;15.50;99.90;;;;;;2121622;27;20031;-72
2022/09/06 04:10:25;;;;;;;17.15;15.35;;;15.50;99.90;;;;;;2121331;27;20447;-71
2022/09/06 04:11:26;;;;;;;16.58;14.88;;;15.50;99.90;;;;;;2121518;27;20446;-71
2022/09/06 04:12:27;;;;;;;16.85;15.13;;;15.50;99.90;;;;;;2121344;27;20046;-71
2022/09/06 04:13:28;;;;;;;16.83;14.95;;;15.50;99.90;;;;;;2121369;27;20499;-72
2022/09/06 04:14:29;;;;;;;16.95;15.25;;;15.50;99.90;;;;;;2121586;27;20023;-73
2022/09/06 04:15:30;;;;;;;17.20;15.40;;;15.50;99.90;;;;;;2121528;27;20055;-71
2022/09/06 04:16:30;;;;;;;17.77;15.88;;;15.50;99.90;;;;;;2121722;27;20035;-72
2022/09/06 04:17:31;;;;;;;17.83;16.02;;;15.50;99.90;;;;;;2121451;27;20106;-71
2022/09/06 04:18:32;;;;;;;18.15;16.23;;;15.50;99.90;;;;;;2120890;27;20016;-72
2022/09/06 04:19:33;;;;;;;17.23;15.52;;;15.50;99.90;;;;;;2121120;27;20054;-72
2022/09/06 04:20:33;;;;;;;17.45;15.75;;;15.50;99.90;;;;;;2121131;27;20037;-72
2022/09/06 04:21:34;;;;;;;17.85;15.40;;;15.50;99.90;;;;;;2121595;27;20023;-73
2022/09/06 04:22:35;;;;;;;18.00;16.05;;;15.50;99.90;;;;;;2121515;27;20102;-72
2022/09/06 04:23:36;;;;;;;18.65;16.23;;;15.50;99.90;;;;;;2121595;27;20516;-72
2022/09/06 04:24:36;;;;;;;19.55;15.80;;;15.50;99.90;;;;;;2121751;27;20042;-72
2022/09/06 04:25:37;;;;;;;19.17;16.10;;;15.50;99.90;;;;;;2121663;27;20062;-72
2022/09/06 04:26:38;;;;;;;17.92;16.02;;;15.60;99.90;;;;;;2121645;27;20031;-72
2022/09/06 04:27:38;;;;;;;17.98;16.15;;;15.50;99.90;;;;;;2121594;27;20107;-72
2022/09/06 04:28:39;;;;;;;17.77;15.95;;;15.50;99.90;;;;;;2121528;28;20125;-72
2022/09/06 04:29:39;;;;;;;18.30;16.30;;;15.60;99.90;;;;;;2120782;28;20023;-72
2022/09/06 04:30:40;;;;;;;17.63;15.75;;;15.60;99.90;;;;;;2120686;27;20385;-72
2022/09/06 04:31:41;;;;;;;17.45;15.65;;;15.60;99.90;;;;;;2121697;27;20119;-72
2022/09/06 04:32:42;;;;;;;17.83;15.95;;;15.60;99.90;;;;;;2121389;27;20804;-72
2022/09/06 04:33:42;;;;;;;16.95;15.25;;;15.60;99.90;;;;;;2121462;27;20486;-73
2022/09/06 04:34:43;;;;;;;17.20;15.40;;;15.60;99.90;;;;;;2121589;27;20097;-72
2022/09/06 04:35:48;;;;;;;17.63;15.82;;;15.60;99.90;;;;;;2120761;28;20216;-72
2022/09/06 04:36:49;;;;;;;17.02;15.27;;;15.60;99.90;;;;;;2110981;28;20024;-73
2022/09/06 04:37:50;;;;;;;16.50;14.68;;;15.70;99.90;;;;;;2108597;28;20050;-72
2022/09/06 04:38:51;;;;;;;17.40;15.68;;;15.70;99.90;;;;;;2115651;27;20691;-72
2022/09/06 04:39:51;;;;;;;16.40;14.65;;;15.70;99.90;;;;;;2119524;27;20030;-73
2022/09/06 04:40:54;;;;;;;16.73;15.02;;;15.70;99.90;;;;;;2120270;28;20153;-71
2022/09/06 04:41:54;;;;;;;16.45;14.85;;;15.70;99.90;;;;;;2120628;28;20034;-74
2022/09/06 04:42:55;;;;;;;15.82;14.15;;;15.70;99.90;;;;;;2112522;28;20528;-71
2022/09/06 04:43:56;;;;;;;15.75;14.15;;;15.70;99.90;;;;;;2120931;28;20027;-73
2022/09/06 04:44:56;;;;;;;16.95;15.15;;;15.70;99.90;;;;;;2121895;28;20027;-72
2022/09/06 04:46:17;;;;;;;16.60;14.88;;;15.80;99.90;;;;;;2121682;28;20031;-72
2022/09/06 04:47:18;;;;;;;16.77;14.93;;;15.80;99.90;;;;;;2122042;27;20023;-74
2022/09/06 04:48:19;;;;;;;16.63;14.90;;;15.80;99.90;;;;;;2121713;28;20027;-71
2022/09/06 04:49:19;;;;;;;17.20;15.43;;;15.80;99.90;;;;;;2121775;28;20077;-72
2022/09/06 04:50:20;;;;;;;16.73;15.02;;;15.80;99.90;;;;;;2121339;28;20123;-72
2022/09/06 04:51:23;;;;;;;16.13;14.43;;;15.80;99.90;;;;;;2121050;28;20555;-73
2022/09/06 04:52:23;;;;;;;16.63;14.93;;;15.80;99.90;;;;;;2112777;28;20032;-77
2022/09/06 04:53:24;;;;;;;16.75;14.95;;;15.80;99.90;;;;;;2113119;28;20098;-75
2022/09/06 04:54:25;;;;;;;16.13;14.48;;;15.80;99.90;;;;;;2121207;28;20015;-74
2022/09/06 04:55:28;;;;;;;16.02;14.43;;;15.90;99.90;;;;;;2121221;28;20019;-74
2022/09/06 04:56:29;;;;;;;17.17;15.38;;;15.90;99.90;;;;;;2122354;28;20015;-74
2022/09/06 04:57:29;;;;;;;17.05;15.25;;;15.90;99.90;;;;;;2121794;28;20019;-73
2022/09/06 04:58:30;;;;;;;18.10;16.20;;;15.90;99.90;;;;;;2112417;28;20032;-73
2022/09/06 04:59:31;;;;;;;17.13;15.32;;;15.90;99.90;;;;;;2113188;28;20026;-75
2022/09/06 05:00:34;;;;;;;17.48;15.57;;;15.90;99.90;;;;;;2121968;27;20038;-72
2022/09/06 05:01:34;;;;;;;17.05;15.38;;;16.00;99.90;;;;;;2122381;27;20034;-75
2022/09/06 05:02:35;;;;;;;17.95;16.10;;;16.00;99.90;;;;;;2122442;28;20035;-75
2022/09/06 05:03:36;;;;;;;17.65;15.80;;;16.10;99.90;;;;;;2122131;28;20023;-75
2022/09/06 05:04:36;;;;;;;17.02;14.93;;;16.10;99.90;;;;;;2122310;28;20035;-77
2022/09/06 05:05:37;;;;;;;17.75;14.65;;;16.10;99.90;;;;;;2113976;28;20035;-78
2022/09/06 05:06:38;;;;;;;16.08;14.38;;;16.20;99.90;;;;;;2114274;28;20028;-72
2022/09/06 05:07:39;;;;;;;16.77;15.05;;;16.30;99.90;;;;;;2124169;27;20052;-76
2022/09/06 05:08:46;;;;;;;16.58;14.68;;;16.40;99.90;;;;;;2124340;27;20031;-76
2022/09/06 05:09:47;;;;;;;16.08;14.40;;;16.50;99.90;;;;;;2116120;28;20150;-78
2022/09/06 05:11:01;;;;;;;18.55;15.13;;;16.60;99.90;;;;;;2109001;27;20069;-75
2022/09/06 05:12:02;;;;;;;16.60;14.82;;;16.70;99.90;;;;;;2107037;28;20042;-72
2022/09/06 05:13:03;;;;;;;16.80;14.95;;;16.80;99.90;;;;;;2114880;28;20020;-75
2022/09/06 05:14:03;;;;;;;16.23;14.40;;;17.00;99.90;;;;;;2123299;27;20042;-72
2022/09/06 05:15:04;;;;;;;16.15;14.07;;;17.10;99.90;;;;;;2123085;27;20019;-73
2022/09/06 05:16:06;;;;;;;16.20;14.50;;;17.20;99.90;;;;;;2124008;27;20027;-72
2022/09/06 05:17:07;;;;;;;15.15;13.70;;;17.20;99.90;;;;;;2124097;27;20023;-74
2022/09/06 05:18:08;;;;;;;15.07;13.52;;;17.30;99.90;;;;;;2123828;27;20393;-72
2022/09/06 05:19:08;;;;;;;15.27;13.68;;;17.30;99.90;;;;;;2124041;27;20026;-73
2022/09/06 05:20:10;;;;;;;20.73;15.85;;;17.30;99.90;;;;;;2124105;27;20038;-73
2022/09/06 05:21:10;;;;;;;18.02;15.23;;;17.20;99.90;;;;;;2123371;27;20031;-73
2022/09/06 05:22:11;;;;;;;17.58;15.00;;;17.20;99.90;;;;;;2114558;28;20119;-74
2022/09/06 05:23:12;;;;;;;18.88;14.82;;;17.20;99.90;;;;;;2122864;27;20076;-73
2022/09/06 05:24:12;;;;;;;16.52;14.77;;;17.20;99.90;;;;;;2123063;27;20039;-73
2022/09/06 05:25:13;;;;;;;15.93;14.23;;;17.10;99.90;;;;;;2122824;27;20062;-73
2022/09/06 05:26:14;;;;;;;16.95;15.05;;;17.10;99.90;;;;;;2122109;27;20053;-73
2022/09/06 05:27:14;;;;;;;16.10;14.35;;;17.10;99.90;;;;;;2121961;27;20111;-73
2022/09/06 05:28:16;;;;;;;15.93;14.15;;;17.10;99.90;;;;;;2121649;27;20102;-73